sensor_id;sensor_type;location;lat;lon;timestamp;pressure;altitude;pressure_sealevel;temperature;humidity
46081;BME280;31821;51.880;-0.518;2022-12-29T00:02:04;98337.13;;;11.17;58.17
46081;BME280;31821;51.880;-0.518;2022-12-29T00:04:30;98386.47;;;11.58;58.32
46081;BME280;31821;51.880;-0.518;2022-12-29T00:06:56;98340.97;;;11.32;57.53
46081;BME280;31821;51.880;-0.518;2022-12-29T00:09:21;98399.09;;;11.59;57.45
46081;BME280;31821;51.880;-0.518;2022-12-29T00:11:47;98385.22;;;11.75;57.20
46081;BME280;31821;51.880;-0.518;2022-12-29T00:14:13;98353.75;;;11.41;57.42
46081;BME280;31821;51.880;-0.518;2022-12-29T00:16:57;98330.81;;;11.76;56.12
46081;BME280;31821;51.880;-0.518;2022-12-29T00:19:23;98346.56;;;11.36;57.98
46081;BME280;31821;51.880;-0.518;2022-12-29T00:22:12;98386.66;;;11.89;56.58
46081;BME280;31821;51.880;-0.518;2022-12-29T00:24:57;98365.09;;;11.75;56.05
46081;BME280;31821;51.880;-0.518;2022-12-29T00:27:42;98380.94;;;11.58;56.49
46081;BME280;31821;51.880;-0.518;2022-12-29T00:30:26;98375.78;;;11.57;57.07
46081;BME280;31821;51.880;-0.518;2022-12-29T00:33:14;98271.47;;;10.87;56.72
46081;BME280;31821;51.880;-0.518;2022-12-29T00:36:08;98317.38;;;11.15;57.40
46081;BME280;31821;51.880;-0.518;2022-12-29T00:38:37;98314.22;;;11.33;56.04
46081;BME280;31821;51.880;-0.518;2022-12-29T00:41:23;98333.06;;;11.50;56.11
46081;BME280;31821;51.880;-0.518;2022-12-29T00:44:12;98373.50;;;11.82;56.27
46081;BME280;31821;51.880;-0.518;2022-12-29T00:46:38;98362.13;;;11.44;55.32
46081;BME280;31821;51.880;-0.518;2022-12-29T00:49:06;98318.84;;;11.29;54.84
46081;BME280;31821;51.880;-0.518;2022-12-29T00:51:51;98357.34;;;11.41;55.85
46081;BME280;31821;51.880;-0.518;2022-12-29T00:54:17;98350.41;;;11.31;54.62
46081;BME280;31821;51.880;-0.518;2022-12-29T00:56:43;98348.75;;;11.66;54.50
46081;BME280;31821;51.880;-0.518;2022-12-29T00:59:09;98372.50;;;11.71;55.31
46081;BME280;31821;51.880;-0.518;2022-12-29T01:01:36;98336.34;;;11.76;54.17
46081;BME280;31821;51.880;-0.518;2022-12-29T01:04:03;98311.78;;;11.51;54.80
46081;BME280;31821;51.880;-0.518;2022-12-29T01:06:29;98319.53;;;11.65;54.28
46081;BME280;31821;51.880;-0.518;2022-12-29T01:08:54;98323.63;;;11.52;54.60
46081;BME280;31821;51.880;-0.518;2022-12-29T01:11:39;98352.47;;;11.34;55.46
46081;BME280;31821;51.880;-0.518;2022-12-29T01:14:05;98301.91;;;11.30;55.11
46081;BME280;31821;51.880;-0.518;2022-12-29T01:16:30;98333.72;;;11.24;55.45
46081;BME280;31821;51.880;-0.518;2022-12-29T01:18:56;98336.09;;;11.26;56.43
46081;BME280;31821;51.880;-0.518;2022-12-29T01:21:22;98307.50;;;11.14;56.35
46081;BME280;31821;51.880;-0.518;2022-12-29T01:23:47;98315.94;;;11.41;55.31
46081;BME280;31821;51.880;-0.518;2022-12-29T01:26:14;98329.75;;;11.41;56.01
46081;BME280;31821;51.880;-0.518;2022-12-29T01:28:41;98271.22;;;11.12;55.76
46081;BME280;31821;51.880;-0.518;2022-12-29T01:31:07;98302.22;;;11.25;57.10
46081;BME280;31821;51.880;-0.518;2022-12-29T01:33:33;98337.78;;;11.30;56.35
46081;BME280;31821;51.880;-0.518;2022-12-29T01:36:00;98337.25;;;11.25;57.46
46081;BME280;31821;51.880;-0.518;2022-12-29T01:38:26;98313.25;;;11.25;57.10
46081;BME280;31821;51.880;-0.518;2022-12-29T01:40:52;98338.06;;;11.25;56.57
46081;BME280;31821;51.880;-0.518;2022-12-29T01:43:17;98251.03;;;10.53;56.92
46081;BME280;31821;51.880;-0.518;2022-12-29T01:45:48;98287.50;;;10.82;56.68
46081;BME280;31821;51.880;-0.518;2022-12-29T01:48:15;98326.97;;;11.22;56.54
46081;BME280;31821;51.880;-0.518;2022-12-29T01:50:48;98326.38;;;11.12;57.00
46081;BME280;31821;51.880;-0.518;2022-12-29T01:53:25;98273.72;;;10.82;56.05
46081;BME280;31821;51.880;-0.518;2022-12-29T01:55:56;98348.13;;;10.98;55.72
46081;BME280;31821;51.880;-0.518;2022-12-29T01:58:29;98325.75;;;10.83;55.92
46081;BME280;31821;51.880;-0.518;2022-12-29T02:00:56;98344.25;;;11.18;55.14
46081;BME280;31821;51.880;-0.518;2022-12-29T02:03:24;98355.63;;;11.17;53.95
46081;BME280;31821;51.880;-0.518;2022-12-29T02:05:56;98334.53;;;10.89;55.15
46081;BME280;31821;51.880;-0.518;2022-12-29T02:08:26;98304.81;;;10.98;54.26
46081;BME280;31821;51.880;-0.518;2022-12-29T02:10:53;98352.16;;;11.40;54.03
46081;BME280;31821;51.880;-0.518;2022-12-29T02:13:19;98287.31;;;10.91;53.61
46081;BME280;31821;51.880;-0.518;2022-12-29T02:16:18;98358.94;;;11.42;53.58
46081;BME280;31821;51.880;-0.518;2022-12-29T02:21:54;98358.53;;;11.24;53.57
46081;BME280;31821;51.880;-0.518;2022-12-29T02:24:38;98371.72;;;11.50;53.77
46081;BME280;31821;51.880;-0.518;2022-12-29T02:30:02;98372.00;;;11.45;54.35
46081;BME280;31821;51.880;-0.518;2022-12-29T02:33:01;98363.13;;;11.00;54.10
46081;BME280;31821;51.880;-0.518;2022-12-29T02:41:32;98342.06;;;11.47;53.69
46081;BME280;31821;51.880;-0.518;2022-12-29T02:44:37;98361.69;;;11.81;53.93
46081;BME280;31821;51.880;-0.518;2022-12-29T02:46:58;98368.44;;;11.64;53.49
46081;BME280;31821;51.880;-0.518;2022-12-29T02:50:20;98331.84;;;11.28;53.51
46081;BME280;31821;51.880;-0.518;2022-12-29T02:52:37;98282.03;;;11.41;52.97
46081;BME280;31821;51.880;-0.518;2022-12-29T02:55:05;98301.06;;;11.46;53.14
46081;BME280;31821;51.880;-0.518;2022-12-29T02:57:34;98289.19;;;11.65;53.43
46081;BME280;31821;51.880;-0.518;2022-12-29T03:00:07;98345.38;;;11.96;53.17
46081;BME280;31821;51.880;-0.518;2022-12-29T03:08:18;98325.56;;;11.71;54.74
46081;BME280;31821;51.880;-0.518;2022-12-29T03:16:23;98311.53;;;11.79;53.29
46081;BME280;31821;51.880;-0.518;2022-12-29T03:24:31;98298.06;;;11.74;53.68
46081;BME280;31821;51.880;-0.518;2022-12-29T03:27:00;98276.25;;;11.69;53.21
46081;BME280;31821;51.880;-0.518;2022-12-29T03:29:29;98281.03;;;11.49;53.07
46081;BME280;31821;51.880;-0.518;2022-12-29T03:31:57;98241.63;;;11.52;53.62
46081;BME280;31821;51.880;-0.518;2022-12-29T03:34:25;98269.84;;;11.65;54.12
46081;BME280;31821;51.880;-0.518;2022-12-29T03:36:58;98280.31;;;11.75;54.29
46081;BME280;31821;51.880;-0.518;2022-12-29T03:39:26;98283.16;;;11.79;54.11
46081;BME280;31821;51.880;-0.518;2022-12-29T03:41:58;98240.34;;;11.46;54.05
46081;BME280;31821;51.880;-0.518;2022-12-29T03:44:39;98269.84;;;11.85;53.94
46081;BME280;31821;51.880;-0.518;2022-12-29T03:47:06;98292.28;;;11.83;53.51
46081;BME280;31821;51.880;-0.518;2022-12-29T03:49:33;98222.00;;;11.14;54.80
46081;BME280;31821;51.880;-0.518;2022-12-29T03:51:59;98228.31;;;11.34;54.17
46081;BME280;31821;51.880;-0.518;2022-12-29T03:54:25;98285.47;;;11.77;55.70
46081;BME280;31821;51.880;-0.518;2022-12-29T03:56:50;98288.84;;;11.90;53.76
46081;BME280;31821;51.880;-0.518;2022-12-29T03:59:16;98304.34;;;11.75;55.02
46081;BME280;31821;51.880;-0.518;2022-12-29T04:01:41;98274.84;;;11.99;53.55
46081;BME280;31821;51.880;-0.518;2022-12-29T04:04:07;98299.09;;;12.09;55.21
46081;BME280;31821;51.880;-0.518;2022-12-29T04:06:32;98261.69;;;11.49;54.76
46081;BME280;31821;51.880;-0.518;2022-12-29T04:08:58;98328.19;;;11.83;57.27
46081;BME280;31821;51.880;-0.518;2022-12-29T04:11:23;98320.22;;;11.78;57.13
46081;BME280;31821;51.880;-0.518;2022-12-29T04:13:49;98335.84;;;11.50;59.51
46081;BME280;31821;51.880;-0.518;2022-12-29T04:16:17;98382.88;;;11.77;58.69
46081;BME280;31821;51.880;-0.518;2022-12-29T04:18:43;98378.25;;;11.42;60.01
46081;BME280;31821;51.880;-0.518;2022-12-29T04:21:08;98252.69;;;10.74;60.58
46081;BME280;31821;51.880;-0.518;2022-12-29T04:23:36;98351.31;;;11.36;60.34
46081;BME280;31821;51.880;-0.518;2022-12-29T04:26:03;98394.50;;;11.67;59.93
46081;BME280;31821;51.880;-0.518;2022-12-29T04:28:29;98404.84;;;11.70;59.71
46081;BME280;31821;51.880;-0.518;2022-12-29T04:30:54;98420.16;;;11.48;60.53
46081;BME280;31821;51.880;-0.518;2022-12-29T04:33:21;98363.94;;;11.01;61.29
46081;BME280;31821;51.880;-0.518;2022-12-29T04:35:47;98417.16;;;11.37;61.76
46081;BME280;31821;51.880;-0.518;2022-12-29T04:38:13;98260.16;;;10.37;60.89
46081;BME280;31821;51.880;-0.518;2022-12-29T04:40:40;98372.22;;;11.01;61.30
46081;BME280;31821;51.880;-0.518;2022-12-29T04:43:07;98390.38;;;11.38;59.63
46081;BME280;31821;51.880;-0.518;2022-12-29T04:45:32;98297.47;;;10.70;60.58
46081;BME280;31821;51.880;-0.518;2022-12-29T04:47:58;98366.84;;;11.44;59.46
46081;BME280;31821;51.880;-0.518;2022-12-29T04:50:24;98355.00;;;11.24;59.10
46081;BME280;31821;51.880;-0.518;2022-12-29T04:52:50;98351.13;;;10.57;60.22
46081;BME280;31821;51.880;-0.518;2022-12-29T04:55:16;98338.59;;;10.44;61.47
46081;BME280;31821;51.880;-0.518;2022-12-29T04:57:41;98310.31;;;10.31;60.56
46081;BME280;31821;51.880;-0.518;2022-12-29T05:00:07;98333.13;;;10.15;61.80
46081;BME280;31821;51.880;-0.518;2022-12-29T05:02:34;98316.34;;;10.04;62.20
46081;BME280;31821;51.880;-0.518;2022-12-29T05:05:00;98496.97;;;11.46;61.75
46081;BME280;31821;51.880;-0.518;2022-12-29T05:07:26;98401.78;;;10.68;61.13
46081;BME280;31821;51.880;-0.518;2022-12-29T05:09:51;98424.63;;;10.53;60.98
46081;BME280;31821;51.880;-0.518;2022-12-29T05:12:17;98494.09;;;11.07;60.03
46081;BME280;31821;51.880;-0.518;2022-12-29T05:14:43;98415.66;;;10.56;60.41
46081;BME280;31821;51.880;-0.518;2022-12-29T05:17:08;98545.94;;;11.49;59.20
46081;BME280;31821;51.880;-0.518;2022-12-29T05:19:34;98373.88;;;10.38;60.01
46081;BME280;31821;51.880;-0.518;2022-12-29T05:22:00;98379.91;;;10.44;60.10
46081;BME280;31821;51.880;-0.518;2022-12-29T05:24:28;98334.72;;;10.16;59.47
46081;BME280;31821;51.880;-0.518;2022-12-29T05:26:54;98493.19;;;11.02;60.02
46081;BME280;31821;51.880;-0.518;2022-12-29T05:29:19;98400.63;;;10.37;59.82
46081;BME280;31821;51.880;-0.518;2022-12-29T05:31:45;98513.22;;;10.83;60.21
46081;BME280;31821;51.880;-0.518;2022-12-29T05:34:11;98485.72;;;11.19;58.17
46081;BME280;31821;51.880;-0.518;2022-12-29T05:36:37;98468.28;;;10.67;59.83
46081;BME280;31821;51.880;-0.518;2022-12-29T05:39:04;98409.78;;;10.57;57.97
46081;BME280;31821;51.880;-0.518;2022-12-29T05:41:30;98472.19;;;10.66;59.18
46081;BME280;31821;51.880;-0.518;2022-12-29T05:43:58;98584.75;;;11.56;58.15
46081;BME280;31821;51.880;-0.518;2022-12-29T05:46:24;98602.00;;;11.53;58.98
46081;BME280;31821;51.880;-0.518;2022-12-29T05:48:50;98627.03;;;11.44;59.21
46081;BME280;31821;51.880;-0.518;2022-12-29T05:51:15;98489.63;;;10.70;59.11
46081;BME280;31821;51.880;-0.518;2022-12-29T05:53:41;98557.75;;;10.85;59.52
46081;BME280;31821;51.880;-0.518;2022-12-29T05:56:07;98468.44;;;10.14;59.27
46081;BME280;31821;51.880;-0.518;2022-12-29T05:58:32;98505.03;;;10.14;59.49
46081;BME280;31821;51.880;-0.518;2022-12-29T06:00:58;98454.56;;;10.10;59.91
46081;BME280;31821;51.880;-0.518;2022-12-29T06:03:24;98636.69;;;11.06;59.88
46081;BME280;31821;51.880;-0.518;2022-12-29T06:05:49;98567.28;;;10.44;60.88
46081;BME280;31821;51.880;-0.518;2022-12-29T06:08:15;98565.47;;;10.23;60.78
46081;BME280;31821;51.880;-0.518;2022-12-29T06:10:40;98548.94;;;10.23;60.27
46081;BME280;31821;51.880;-0.518;2022-12-29T06:13:06;98539.97;;;9.98;60.43
46081;BME280;31821;51.880;-0.518;2022-12-29T06:15:33;98584.16;;;10.42;59.71
46081;BME280;31821;51.880;-0.518;2022-12-29T06:17:59;98569.47;;;10.25;59.80
46081;BME280;31821;51.880;-0.518;2022-12-29T06:20:24;98510.09;;;9.71;59.42
46081;BME280;31821;51.880;-0.518;2022-12-29T06:22:50;98510.00;;;9.55;60.81
46081;BME280;31821;51.880;-0.518;2022-12-29T06:25:16;98653.22;;;10.37;60.99
46081;BME280;31821;51.880;-0.518;2022-12-29T06:27:42;98656.34;;;10.35;60.64
46081;BME280;31821;51.880;-0.518;2022-12-29T06:30:09;98536.25;;;9.53;60.72
46081;BME280;31821;51.880;-0.518;2022-12-29T06:32:35;98576.38;;;9.54;61.38
46081;BME280;31821;51.880;-0.518;2022-12-29T06:35:02;98622.44;;;9.57;61.61
46081;BME280;31821;51.880;-0.518;2022-12-29T06:37:28;98601.72;;;9.59;61.91
46081;BME280;31821;51.880;-0.518;2022-12-29T06:39:56;98574.41;;;9.17;61.00
46081;BME280;31821;51.880;-0.518;2022-12-29T06:42:22;98627.75;;;9.74;60.01
46081;BME280;31821;51.880;-0.518;2022-12-29T06:44:47;98646.31;;;9.65;61.31
46081;BME280;31821;51.880;-0.518;2022-12-29T06:47:15;98693.31;;;10.22;60.06
46081;BME280;31821;51.880;-0.518;2022-12-29T06:49:40;98743.69;;;10.35;61.04
46081;BME280;31821;51.880;-0.518;2022-12-29T06:52:06;98682.78;;;9.74;61.28
46081;BME280;31821;51.880;-0.518;2022-12-29T06:54:32;98720.53;;;9.99;60.54
46081;BME280;31821;51.880;-0.518;2022-12-29T06:56:57;98652.34;;;9.33;61.83
46081;BME280;31821;51.880;-0.518;2022-12-29T06:59:23;98717.88;;;9.65;61.66
46081;BME280;31821;51.880;-0.518;2022-12-29T07:01:50;98678.06;;;9.50;60.80
46081;BME280;31821;51.880;-0.518;2022-12-29T07:04:16;98596.63;;;8.99;60.53
46081;BME280;31821;51.880;-0.518;2022-12-29T07:06:41;98700.66;;;9.68;60.71
46081;BME280;31821;51.880;-0.518;2022-12-29T07:09:08;98634.00;;;9.25;60.56
46081;BME280;31821;51.880;-0.518;2022-12-29T07:11:34;98726.25;;;9.81;60.14
46081;BME280;31821;51.880;-0.518;2022-12-29T07:13:59;98680.47;;;9.52;60.15
46081;BME280;31821;51.880;-0.518;2022-12-29T07:16:25;98686.06;;;9.43;60.34
46081;BME280;31821;51.880;-0.518;2022-12-29T07:18:51;98730.72;;;9.73;61.33
46081;BME280;31821;51.880;-0.518;2022-12-29T07:21:18;98743.50;;;9.57;61.17
46081;BME280;31821;51.880;-0.518;2022-12-29T07:23:44;98765.59;;;9.82;60.25
46081;BME280;31821;51.880;-0.518;2022-12-29T07:26:12;98744.69;;;9.68;60.40
46081;BME280;31821;51.880;-0.518;2022-12-29T07:28:38;98646.22;;;8.69;60.56
46081;BME280;31821;51.880;-0.518;2022-12-29T07:31:05;98629.25;;;8.67;60.53
46081;BME280;31821;51.880;-0.518;2022-12-29T07:33:32;98792.66;;;9.79;61.30
46081;BME280;31821;51.880;-0.518;2022-12-29T07:35:58;98713.69;;;9.13;60.58
46081;BME280;31821;51.880;-0.518;2022-12-29T07:38:24;98654.22;;;9.08;59.33
46081;BME280;31821;51.880;-0.518;2022-12-29T07:40:50;98663.72;;;8.98;59.56
46081;BME280;31821;51.880;-0.518;2022-12-29T07:43:15;98738.06;;;9.36;60.26
46081;BME280;31821;51.880;-0.518;2022-12-29T07:45:41;98740.09;;;8.72;61.94
46081;BME280;31821;51.880;-0.518;2022-12-29T07:48:06;98749.38;;;9.00;61.90
46081;BME280;31821;51.880;-0.518;2022-12-29T07:50:35;98728.56;;;8.99;61.49
46081;BME280;31821;51.880;-0.518;2022-12-29T07:53:02;98869.53;;;9.85;61.41
46081;BME280;31821;51.880;-0.518;2022-12-29T07:55:28;98830.81;;;9.69;61.44
46081;BME280;31821;51.880;-0.518;2022-12-29T07:57:54;98798.13;;;9.33;61.68
46081;BME280;31821;51.880;-0.518;2022-12-29T08:00:20;98780.75;;;9.21;61.08
46081;BME280;31821;51.880;-0.518;2022-12-29T08:02:46;98738.75;;;8.99;60.96
46081;BME280;31821;51.880;-0.518;2022-12-29T08:05:11;98792.59;;;8.79;61.91
46081;BME280;31821;51.880;-0.518;2022-12-29T08:07:37;98889.94;;;9.84;60.94
46081;BME280;31821;51.880;-0.518;2022-12-29T08:10:03;98813.38;;;9.10;60.81
46081;BME280;31821;51.880;-0.518;2022-12-29T08:12:29;98833.97;;;9.25;61.92
46081;BME280;31821;51.880;-0.518;2022-12-29T08:14:55;98749.84;;;9.02;60.37
46081;BME280;31821;51.880;-0.518;2022-12-29T08:17:21;98854.22;;;9.41;61.25
46081;BME280;31821;51.880;-0.518;2022-12-29T08:19:46;98759.47;;;8.96;60.95
46081;BME280;31821;51.880;-0.518;2022-12-29T08:22:14;98729.97;;;8.63;61.16
46081;BME280;31821;51.880;-0.518;2022-12-29T08:24:39;98871.66;;;9.45;61.46
46081;BME280;31821;51.880;-0.518;2022-12-29T08:27:05;98745.78;;;8.88;60.98
46081;BME280;31821;51.880;-0.518;2022-12-29T08:29:31;98755.81;;;8.62;61.37
46081;BME280;31821;51.880;-0.518;2022-12-29T08:31:56;98833.22;;;9.15;61.59
46081;BME280;31821;51.880;-0.518;2022-12-29T08:34:22;98916.34;;;9.42;61.58
46081;BME280;31821;51.880;-0.518;2022-12-29T08:36:48;98876.53;;;9.61;60.31
46081;BME280;31821;51.880;-0.518;2022-12-29T08:39:13;98752.00;;;8.97;60.04
46081;BME280;31821;51.880;-0.518;2022-12-29T08:41:39;98959.31;;;10.10;60.69
46081;BME280;31821;51.880;-0.518;2022-12-29T08:44:08;98837.91;;;9.15;61.38
46081;BME280;31821;51.880;-0.518;2022-12-29T08:46:33;98810.34;;;9.24;60.66
46081;BME280;31821;51.880;-0.518;2022-12-29T08:48:59;98784.00;;;9.01;61.59
46081;BME280;31821;51.880;-0.518;2022-12-29T08:51:25;98861.56;;;9.71;60.85
46081;BME280;31821;51.880;-0.518;2022-12-29T08:53:51;98860.38;;;9.93;59.93
46081;BME280;31821;51.880;-0.518;2022-12-29T08:56:16;98869.28;;;9.56;60.34
46081;BME280;31821;51.880;-0.518;2022-12-29T08:58:42;98918.59;;;10.16;60.23
46081;BME280;31821;51.880;-0.518;2022-12-29T09:01:09;98893.75;;;10.04;60.59
46081;BME280;31821;51.880;-0.518;2022-12-29T09:03:35;98864.66;;;9.48;61.29
46081;BME280;31821;51.880;-0.518;2022-12-29T09:06:00;98806.06;;;9.35;60.52
46081;BME280;31821;51.880;-0.518;2022-12-29T09:08:31;98921.41;;;9.95;59.25
46081;BME280;31821;51.880;-0.518;2022-12-29T09:11:06;98875.41;;;9.41;60.52
46081;BME280;31821;51.880;-0.518;2022-12-29T09:13:33;98869.50;;;9.30;60.47
46081;BME280;31821;51.880;-0.518;2022-12-29T09:15:59;98864.56;;;9.57;59.58
46081;BME280;31821;51.880;-0.518;2022-12-29T09:18:25;98808.47;;;9.37;58.08
46081;BME280;31821;51.880;-0.518;2022-12-29T09:20:56;98894.41;;;9.88;58.83
46081;BME280;31821;51.880;-0.518;2022-12-29T09:23:23;98848.22;;;9.60;57.93
46081;BME280;31821;51.880;-0.518;2022-12-29T09:25:48;99018.06;;;10.69;59.53
46081;BME280;31821;51.880;-0.518;2022-12-29T09:28:14;98978.97;;;10.43;57.46
46081;BME280;31821;51.880;-0.518;2022-12-29T09:30:39;98939.47;;;10.17;57.08
46081;BME280;31821;51.880;-0.518;2022-12-29T09:33:05;98947.19;;;10.70;57.00
46081;BME280;31821;51.880;-0.518;2022-12-29T09:35:30;98939.59;;;11.16;54.81
46081;BME280;31821;51.880;-0.518;2022-12-29T09:37:56;98947.50;;;11.30;54.62
46081;BME280;31821;51.880;-0.518;2022-12-29T09:40:30;99005.78;;;12.19;53.40
46081;BME280;31821;51.880;-0.518;2022-12-29T09:48:38;98959.22;;;11.93;51.18
46081;BME280;31821;51.880;-0.518;2022-12-29T09:51:10;98990.34;;;12.18;51.19
46081;BME280;31821;51.880;-0.518;2022-12-29T09:53:46;99041.66;;;12.48;51.07
46081;BME280;31821;51.880;-0.518;2022-12-29T09:56:19;98990.44;;;12.22;50.96
46081;BME280;31821;51.880;-0.518;2022-12-29T09:58:54;99047.59;;;11.93;52.36
46081;BME280;31821;51.880;-0.518;2022-12-29T10:01:44;99060.28;;;11.81;53.47
46081;BME280;31821;51.880;-0.518;2022-12-29T10:04:11;99040.53;;;11.55;54.15
46081;BME280;31821;51.880;-0.518;2022-12-29T10:06:50;99059.25;;;11.61;54.55
46081;BME280;31821;51.880;-0.518;2022-12-29T10:09:49;99066.41;;;11.50;54.01
46081;BME280;31821;51.880;-0.518;2022-12-29T10:17:57;99076.06;;;11.56;55.50
46081;BME280;31821;51.880;-0.518;2022-12-29T10:20:31;99019.94;;;11.64;54.96
46081;BME280;31821;51.880;-0.518;2022-12-29T10:23:22;99081.66;;;12.09;53.53
46081;BME280;31821;51.880;-0.518;2022-12-29T10:25:50;99073.56;;;13.02;50.79
46081;BME280;31821;51.880;-0.518;2022-12-29T10:28:23;99070.53;;;13.55;50.69
46081;BME280;31821;51.880;-0.518;2022-12-29T10:30:50;99026.84;;;12.84;50.96
46081;BME280;31821;51.880;-0.518;2022-12-29T10:33:21;99041.41;;;13.13;49.63
46081;BME280;31821;51.880;-0.518;2022-12-29T10:35:50;99050.56;;;12.85;49.06
46081;BME280;31821;51.880;-0.518;2022-12-29T10:41:08;99059.34;;;12.59;49.77
46081;BME280;31821;51.880;-0.518;2022-12-29T10:43:53;99097.69;;;12.89;49.38
46081;BME280;31821;51.880;-0.518;2022-12-29T10:46:29;99091.84;;;12.62;50.48
46081;BME280;31821;51.880;-0.518;2022-12-29T10:48:56;99067.47;;;12.11;50.67
46081;BME280;31821;51.880;-0.518;2022-12-29T10:51:22;99113.59;;;12.35;50.98
46081;BME280;31821;51.880;-0.518;2022-12-29T10:54:01;99100.31;;;12.69;50.79
46081;BME280;31821;51.880;-0.518;2022-12-29T10:56:34;99098.56;;;13.22;49.66
46081;BME280;31821;51.880;-0.518;2022-12-29T10:59:16;99095.28;;;13.48;48.97
46081;BME280;31821;51.880;-0.518;2022-12-29T11:01:53;99056.31;;;13.41;47.92
46081;BME280;31821;51.880;-0.518;2022-12-29T11:04:52;99075.06;;;13.99;46.90
46081;BME280;31821;51.880;-0.518;2022-12-29T11:07:17;99077.50;;;14.40;46.72
46081;BME280;31821;51.880;-0.518;2022-12-29T11:09:44;99105.97;;;13.81;45.96
46081;BME280;31821;51.880;-0.518;2022-12-29T11:12:27;99082.50;;;14.14;45.90
46081;BME280;31821;51.880;-0.518;2022-12-29T11:15:23;99100.41;;;13.33;47.67
46081;BME280;31821;51.880;-0.518;2022-12-29T11:17:51;99102.66;;;13.28;47.26
46081;BME280;31821;51.880;-0.518;2022-12-29T11:20:38;99119.75;;;13.46;48.00
46081;BME280;31821;51.880;-0.518;2022-12-29T11:23:21;99144.16;;;13.12;48.58
46081;BME280;31821;51.880;-0.518;2022-12-29T11:26:13;99127.06;;;13.70;47.42
46081;BME280;31821;51.880;-0.518;2022-12-29T11:28:39;99118.69;;;14.02;46.37
46081;BME280;31821;51.880;-0.518;2022-12-29T11:31:07;99040.44;;;13.38;47.33
46081;BME280;31821;51.880;-0.518;2022-12-29T11:33:35;99105.38;;;13.56;47.15
46081;BME280;31821;51.880;-0.518;2022-12-29T11:36:15;99114.22;;;14.33;46.53
46081;BME280;31821;51.880;-0.518;2022-12-29T11:38:46;99124.41;;;14.29;45.63
46081;BME280;31821;51.880;-0.518;2022-12-29T11:41:18;99136.03;;;14.54;44.72
46081;BME280;31821;51.880;-0.518;2022-12-29T11:43:44;99107.25;;;14.23;45.26
46081;BME280;31821;51.880;-0.518;2022-12-29T11:46:24;99102.38;;;13.81;45.74
46081;BME280;31821;51.880;-0.518;2022-12-29T11:48:51;99151.34;;;13.93;45.37
46081;BME280;31821;51.880;-0.518;2022-12-29T11:51:26;99127.59;;;13.60;46.83
46081;BME280;31821;51.880;-0.518;2022-12-29T11:53:59;99154.66;;;13.66;46.81
46081;BME280;31821;51.880;-0.518;2022-12-29T11:56:36;99116.59;;;13.47;46.57
46081;BME280;31821;51.880;-0.518;2022-12-29T11:59:24;99165.84;;;13.70;46.93
46081;BME280;31821;51.880;-0.518;2022-12-29T12:01:49;99158.28;;;13.23;48.34
46081;BME280;31821;51.880;-0.518;2022-12-29T12:04:17;99155.28;;;13.60;47.29
46081;BME280;31821;51.880;-0.518;2022-12-29T12:07:37;99104.66;;;12.83;47.63
46081;BME280;31821;51.880;-0.518;2022-12-29T12:09:45;99132.63;;;13.10;48.02
46081;BME280;31821;51.880;-0.518;2022-12-29T12:12:34;99165.84;;;13.26;47.38
46081;BME280;31821;51.880;-0.518;2022-12-29T12:15:02;99164.41;;;13.00;46.49
46081;BME280;31821;51.880;-0.518;2022-12-29T12:17:39;99161.44;;;12.64;48.74
46081;BME280;31821;51.880;-0.518;2022-12-29T12:20:38;99168.38;;;12.86;46.51
46081;BME280;31821;51.880;-0.518;2022-12-29T12:23:22;99153.78;;;13.02;46.61
46081;BME280;31821;51.880;-0.518;2022-12-29T12:26:13;99161.84;;;12.38;47.11
46081;BME280;31821;51.880;-0.518;2022-12-29T12:29:22;99132.41;;;12.30;47.91
46081;BME280;31821;51.880;-0.518;2022-12-29T12:31:57;99167.84;;;12.68;48.09
46081;BME280;31821;51.880;-0.518;2022-12-29T12:34:35;99170.72;;;12.31;47.59
46081;BME280;31821;51.880;-0.518;2022-12-29T12:48:11;99120.13;;;12.43;48.53
46081;BME280;31821;51.880;-0.518;2022-12-29T12:53:50;99182.81;;;12.39;47.85
46081;BME280;31821;51.880;-0.518;2022-12-29T12:59:18;99186.16;;;12.20;48.48
46081;BME280;31821;51.880;-0.518;2022-12-29T13:04:57;99184.06;;;12.41;48.33
46081;BME280;31821;51.880;-0.518;2022-12-29T13:10:16;99173.31;;;12.52;46.87
46081;BME280;31821;51.880;-0.518;2022-12-29T13:17:56;99169.19;;;12.46;46.57
46081;BME280;31821;51.880;-0.518;2022-12-29T13:23:10;99131.47;;;12.25;47.81
46081;BME280;31821;51.880;-0.518;2022-12-29T13:34:04;99196.66;;;12.02;48.72
46081;BME280;31821;51.880;-0.518;2022-12-29T13:36:44;99184.09;;;11.92;48.94
46081;BME280;31821;51.880;-0.518;2022-12-29T13:39:16;99188.72;;;12.00;48.64
46081;BME280;31821;51.880;-0.518;2022-12-29T13:41:45;99208.38;;;12.11;48.19
46081;BME280;31821;51.880;-0.518;2022-12-29T13:44:17;99199.41;;;12.14;49.21
46081;BME280;31821;51.880;-0.518;2022-12-29T13:46:48;99172.13;;;11.63;48.22
46081;BME280;31821;51.880;-0.518;2022-12-29T13:51:48;99215.03;;;11.73;48.34
46081;BME280;31821;51.880;-0.518;2022-12-29T13:59:56;99222.59;;;11.63;48.76
46081;BME280;31821;51.880;-0.518;2022-12-29T14:04:59;99252.38;;;11.58;50.86
46081;BME280;31821;51.880;-0.518;2022-12-29T14:07:26;99236.50;;;11.42;50.47
46081;BME280;31821;51.880;-0.518;2022-12-29T14:09:54;99219.97;;;11.21;51.51
46081;BME280;31821;51.880;-0.518;2022-12-29T14:14:46;99236.53;;;11.67;50.28
46081;BME280;31821;51.880;-0.518;2022-12-29T14:17:12;99168.88;;;11.02;50.65
46081;BME280;31821;51.880;-0.518;2022-12-29T14:19:43;99231.88;;;11.34;51.69
46081;BME280;31821;51.880;-0.518;2022-12-29T14:22:10;99221.75;;;11.05;52.14
46081;BME280;31821;51.880;-0.518;2022-12-29T14:24:45;99240.47;;;11.32;52.06
46081;BME280;31821;51.880;-0.518;2022-12-29T14:34:47;99247.47;;;10.96;52.79
46081;BME280;31821;51.880;-0.518;2022-12-29T14:40:22;99263.94;;;11.05;52.32
46081;BME280;31821;51.880;-0.518;2022-12-29T14:42:50;99205.88;;;10.47;51.51
46081;BME280;31821;51.880;-0.518;2022-12-29T14:47:50;99275.16;;;10.79;51.22
46081;BME280;31821;51.880;-0.518;2022-12-29T14:50:24;99262.31;;;11.04;51.20
46081;BME280;31821;51.880;-0.518;2022-12-29T14:52:52;99274.63;;;10.85;50.98
46081;BME280;31821;51.880;-0.518;2022-12-29T15:00:38;99314.28;;;11.02;51.34
46081;BME280;31821;51.880;-0.518;2022-12-29T15:03:07;99302.03;;;10.91;51.67